sensor_id;sensor_type;location;lat;lon;timestamp;pressure;altitude;pressure_sealevel;temperature;humidity
77120;BME280;66073;47.730;9.352;2023-04-19T00:00:06;97080.91;;;8.11;77.31
77120;BME280;66073;47.730;9.352;2023-04-19T00:02:33;97070.16;;;8.22;77.23
77120;BME280;66073;47.730;9.352;2023-04-19T00:04:59;97074.75;;;8.27;76.36
77120;BME280;66073;47.730;9.352;2023-04-19T00:07:25;97071.19;;;7.94;77.30
77120;BME280;66073;47.730;9.352;2023-04-19T00:09:51;97066.41;;;7.96;78.04
77120;BME280;66073;47.730;9.352;2023-04-19T00:12:17;97072.13;;;8.10;77.29
77120;BME280;66073;47.730;9.352;2023-04-19T00:14:42;97067.72;;;7.94;77.83
77120;BME280;66073;47.730;9.352;2023-04-19T00:17:08;97074.50;;;8.28;76.67
77120;BME280;66073;47.730;9.352;2023-04-19T00:19:35;97074.44;;;8.02;77.67
77120;BME280;66073;47.730;9.352;2023-04-19T00:22:00;97072.28;;;8.20;77.29
77120;BME280;66073;47.730;9.352;2023-04-19T00:24:26;97067.75;;;8.21;76.95
77120;BME280;66073;47.730;9.352;2023-04-19T00:26:51;97070.56;;;8.09;77.26
77120;BME280;66073;47.730;9.352;2023-04-19T00:29:17;97066.06;;;7.88;77.56
77120;BME280;66073;47.730;9.352;2023-04-19T00:31:42;97063.50;;;8.20;76.78
77120;BME280;66073;47.730;9.352;2023-04-19T00:34:08;97063.44;;;8.15;76.80
77120;BME280;66073;47.730;9.352;2023-04-19T00:36:33;97057.59;;;8.18;76.84
77120;BME280;66073;47.730;9.352;2023-04-19T00:38:59;97063.19;;;8.38;75.83
77120;BME280;66073;47.730;9.352;2023-04-19T00:41:24;97054.91;;;8.13;76.60
77120;BME280;66073;47.730;9.352;2023-04-19T00:43:50;97059.13;;;8.09;76.76
77120;BME280;66073;47.730;9.352;2023-04-19T00:46:15;97055.03;;;8.01;77.57
77120;BME280;66073;47.730;9.352;2023-04-19T00:48:41;97054.09;;;8.12;76.92
77120;BME280;66073;47.730;9.352;2023-04-19T00:51:07;97052.81;;;7.93;77.51
77120;BME280;66073;47.730;9.352;2023-04-19T00:53:35;97057.28;;;7.87;78.04
77120;BME280;66073;47.730;9.352;2023-04-19T00:56:02;97057.28;;;7.87;78.28
77120;BME280;66073;47.730;9.352;2023-04-19T00:58:30;97052.84;;;8.41;76.45
77120;BME280;66073;47.730;9.352;2023-04-19T01:01:01;97053.84;;;8.14;75.87
77120;BME280;66073;47.730;9.352;2023-04-19T01:03:27;97057.38;;;7.97;76.81
77120;BME280;66073;47.730;9.352;2023-04-19T01:05:54;97046.94;;;8.13;76.52
77120;BME280;66073;47.730;9.352;2023-04-19T01:08:20;97057.00;;;8.11;76.82
77120;BME280;66073;47.730;9.352;2023-04-19T01:10:45;97050.34;;;8.30;75.93
77120;BME280;66073;47.730;9.352;2023-04-19T01:13:11;97049.41;;;8.19;76.01
77120;BME280;66073;47.730;9.352;2023-04-19T01:15:36;97045.25;;;8.07;77.54
77120;BME280;66073;47.730;9.352;2023-04-19T01:18:02;97041.84;;;8.11;77.12
77120;BME280;66073;47.730;9.352;2023-04-19T01:20:27;97043.66;;;8.06;77.47
77120;BME280;66073;47.730;9.352;2023-04-19T01:22:53;97035.22;;;8.14;77.20
77120;BME280;66073;47.730;9.352;2023-04-19T01:25:18;97042.25;;;7.98;77.50
77120;BME280;66073;47.730;9.352;2023-04-19T01:27:44;97045.84;;;8.14;77.24
77120;BME280;66073;47.730;9.352;2023-04-19T01:30:10;97034.78;;;7.95;77.61
77120;BME280;66073;47.730;9.352;2023-04-19T01:32:35;97030.09;;;8.07;77.61
77120;BME280;66073;47.730;9.352;2023-04-19T01:35:01;97033.13;;;8.16;77.22
77120;BME280;66073;47.730;9.352;2023-04-19T01:37:26;97032.53;;;8.09;77.29
77120;BME280;66073;47.730;9.352;2023-04-19T01:39:51;97026.72;;;8.12;77.58
77120;BME280;66073;47.730;9.352;2023-04-19T01:42:17;97020.22;;;8.03;77.74
77120;BME280;66073;47.730;9.352;2023-04-19T01:44:42;97013.94;;;8.14;77.61
77120;BME280;66073;47.730;9.352;2023-04-19T01:47:08;97018.81;;;8.17;77.62
77120;BME280;66073;47.730;9.352;2023-04-19T01:49:34;97012.75;;;7.99;77.84
77120;BME280;66073;47.730;9.352;2023-04-19T01:51:59;97012.59;;;8.11;77.71
77120;BME280;66073;47.730;9.352;2023-04-19T01:54:25;97009.34;;;8.04;78.08
77120;BME280;66073;47.730;9.352;2023-04-19T01:56:51;97011.25;;;8.09;78.06
77120;BME280;66073;47.730;9.352;2023-04-19T01:59:16;97014.97;;;8.08;78.03
77120;BME280;66073;47.730;9.352;2023-04-19T02:01:42;97012.41;;;8.18;77.82
77120;BME280;66073;47.730;9.352;2023-04-19T02:04:08;97011.38;;;8.19;78.09
77120;BME280;66073;47.730;9.352;2023-04-19T02:06:33;97014.03;;;8.19;78.47
77120;BME280;66073;47.730;9.352;2023-04-19T02:08:59;97010.78;;;8.38;77.50
77120;BME280;66073;47.730;9.352;2023-04-19T02:11:24;97010.44;;;8.30;77.50
77120;BME280;66073;47.730;9.352;2023-04-19T02:13:50;97010.44;;;8.30;77.45
77120;BME280;66073;47.730;9.352;2023-04-19T02:16:15;97007.88;;;8.40;77.11
77120;BME280;66073;47.730;9.352;2023-04-19T02:18:41;97010.97;;;8.32;77.21
77120;BME280;66073;47.730;9.352;2023-04-19T02:21:07;97007.28;;;8.33;77.07
77120;BME280;66073;47.730;9.352;2023-04-19T02:23:33;97003.66;;;8.44;77.01
77120;BME280;66073;47.730;9.352;2023-04-19T02:26:00;97015.94;;;8.50;76.75
77120;BME280;66073;47.730;9.352;2023-04-19T02:28:31;97002.13;;;8.53;76.61
77120;BME280;66073;47.730;9.352;2023-04-19T02:30:58;97011.88;;;8.69;76.20
77120;BME280;66073;47.730;9.352;2023-04-19T02:33:25;97005.09;;;8.57;75.95
77120;BME280;66073;47.730;9.352;2023-04-19T02:35:51;97004.41;;;8.66;75.82
77120;BME280;66073;47.730;9.352;2023-04-19T02:38:16;97006.53;;;8.69;75.73
77120;BME280;66073;47.730;9.352;2023-04-19T02:40:42;97003.13;;;8.74;75.51
77120;BME280;66073;47.730;9.352;2023-04-19T02:43:07;97008.75;;;8.77;75.51
77120;BME280;66073;47.730;9.352;2023-04-19T02:45:33;97001.84;;;8.81;74.53
77120;BME280;66073;47.730;9.352;2023-04-19T02:47:59;97003.78;;;8.91;74.11
77120;BME280;66073;47.730;9.352;2023-04-19T02:50:26;96999.16;;;8.81;74.15
77120;BME280;66073;47.730;9.352;2023-04-19T02:52:52;97005.38;;;8.92;74.64
77120;BME280;66073;47.730;9.352;2023-04-19T02:55:17;97000.84;;;8.87;73.99
77120;BME280;66073;47.730;9.352;2023-04-19T02:57:43;97000.72;;;8.72;74.35
77120;BME280;66073;47.730;9.352;2023-04-19T03:00:09;96995.00;;;8.90;73.66
77120;BME280;66073;47.730;9.352;2023-04-19T03:02:35;96996.59;;;8.91;73.26
77120;BME280;66073;47.730;9.352;2023-04-19T03:05:01;96996.69;;;9.02;71.91
77120;BME280;66073;47.730;9.352;2023-04-19T03:07:26;96993.44;;;8.94;73.06
77120;BME280;66073;47.730;9.352;2023-04-19T03:09:52;96989.63;;;8.85;73.20
77120;BME280;66073;47.730;9.352;2023-04-19T03:12:17;96995.53;;;8.92;72.82
77120;BME280;66073;47.730;9.352;2023-04-19T03:14:42;96986.34;;;8.73;72.72
77120;BME280;66073;47.730;9.352;2023-04-19T03:17:08;96985.09;;;8.86;72.82
77120;BME280;66073;47.730;9.352;2023-04-19T03:19:33;96988.81;;;8.85;72.31
77120;BME280;66073;47.730;9.352;2023-04-19T03:21:59;96986.13;;;8.80;72.27
77120;BME280;66073;47.730;9.352;2023-04-19T03:24:28;96983.31;;;8.91;72.50
77120;BME280;66073;47.730;9.352;2023-04-19T03:26:57;96979.53;;;8.87;72.33
77120;BME280;66073;47.730;9.352;2023-04-19T03:29:23;96981.69;;;8.95;72.40
77120;BME280;66073;47.730;9.352;2023-04-19T03:31:48;96977.56;;;9.15;71.21
77120;BME280;66073;47.730;9.352;2023-04-19T03:34:14;96980.59;;;8.86;72.15
77120;BME280;66073;47.730;9.352;2023-04-19T03:36:40;96981.16;;;8.93;71.94
77120;BME280;66073;47.730;9.352;2023-04-19T03:39:05;96974.75;;;8.89;72.10
77120;BME280;66073;47.730;9.352;2023-04-19T03:41:31;96975.84;;;8.93;72.60
77120;BME280;66073;47.730;9.352;2023-04-19T03:43:57;96968.47;;;9.06;72.17
77120;BME280;66073;47.730;9.352;2023-04-19T03:46:23;96975.38;;;9.07;71.67
77120;BME280;66073;47.730;9.352;2023-04-19T03:48:49;96977.06;;;9.18;71.95
77120;BME280;66073;47.730;9.352;2023-04-19T03:51:14;96972.78;;;9.12;71.98
77120;BME280;66073;47.730;9.352;2023-04-19T03:53:40;96973.94;;;8.89;72.73
77120;BME280;66073;47.730;9.352;2023-04-19T03:56:06;96981.22;;;9.04;72.49
77120;BME280;66073;47.730;9.352;2023-04-19T03:58:32;96974.59;;;9.06;72.32
77120;BME280;66073;47.730;9.352;2023-04-19T04:00:58;96975.38;;;9.07;72.37
77120;BME280;66073;47.730;9.352;2023-04-19T04:03:24;96967.22;;;9.18;72.15
77120;BME280;66073;47.730;9.352;2023-04-19T04:05:50;96972.25;;;9.15;72.61
77120;BME280;66073;47.730;9.352;2023-04-19T04:08:15;96968.69;;;8.99;73.18
77120;BME280;66073;47.730;9.352;2023-04-19T04:10:41;96970.34;;;9.10;72.76
77120;BME280;66073;47.730;9.352;2023-04-19T04:13:06;96966.63;;;9.11;72.74
77120;BME280;66073;47.730;9.352;2023-04-19T04:15:32;96968.97;;;9.03;73.00
77120;BME280;66073;47.730;9.352;2023-04-19T04:17:57;96966.34;;;9.08;72.88
77120;BME280;66073;47.730;9.352;2023-04-19T04:20:23;96975.94;;;9.09;73.23
77120;BME280;66073;47.730;9.352;2023-04-19T04:22:48;96971.38;;;9.04;73.38
77120;BME280;66073;47.730;9.352;2023-04-19T04:25:14;96969.50;;;9.00;73.53
77120;BME280;66073;47.730;9.352;2023-04-19T04:27:42;96970.59;;;9.04;73.39
77120;BME280;66073;47.730;9.352;2023-04-19T04:30:11;96971.63;;;8.98;73.58
77120;BME280;66073;47.730;9.352;2023-04-19T04:32:37;96973.81;;;9.06;73.50
77120;BME280;66073;47.730;9.352;2023-04-19T04:35:07;96978.03;;;9.02;73.05
77120;BME280;66073;47.730;9.352;2023-04-19T04:37:34;96980.88;;;8.90;73.69
77120;BME280;66073;47.730;9.352;2023-04-19T04:40:00;96979.34;;;8.99;73.40
77120;BME280;66073;47.730;9.352;2023-04-19T04:42:26;96969.78;;;9.03;73.43
77120;BME280;66073;47.730;9.352;2023-04-19T04:44:52;96980.13;;;9.00;73.45
77120;BME280;66073;47.730;9.352;2023-04-19T04:47:19;96976.47;;;9.06;73.00
77120;BME280;66073;47.730;9.352;2023-04-19T04:49:45;96975.44;;;9.12;72.21
77120;BME280;66073;47.730;9.352;2023-04-19T04:52:11;96983.75;;;9.20;72.18
77120;BME280;66073;47.730;9.352;2023-04-19T04:54:36;96974.88;;;9.10;72.53
77120;BME280;66073;47.730;9.352;2023-04-19T04:57:02;96976.75;;;9.09;72.97
77120;BME280;66073;47.730;9.352;2023-04-19T04:59:28;96976.25;;;9.17;72.16
77120;BME280;66073;47.730;9.352;2023-04-19T05:01:54;96977.03;;;9.13;72.25
77120;BME280;66073;47.730;9.352;2023-04-19T05:04:19;96980.78;;;9.17;72.32
77120;BME280;66073;47.730;9.352;2023-04-19T05:06:45;96978.16;;;9.22;71.91
77120;BME280;66073;47.730;9.352;2023-04-19T05:09:11;96982.13;;;9.19;72.14
77120;BME280;66073;47.730;9.352;2023-04-19T05:11:36;96980.84;;;9.27;71.83
77120;BME280;66073;47.730;9.352;2023-04-19T05:14:02;96984.00;;;9.19;72.50
77120;BME280;66073;47.730;9.352;2023-04-19T05:16:28;96982.97;;;9.25;71.58
77120;BME280;66073;47.730;9.352;2023-04-19T05:18:55;96986.19;;;9.27;71.91
77120;BME280;66073;47.730;9.352;2023-04-19T05:21:21;96981.84;;;9.16;71.66
77120;BME280;66073;47.730;9.352;2023-04-19T05:23:46;96987.28;;;9.31;71.81
77120;BME280;66073;47.730;9.352;2023-04-19T05:26:13;96980.28;;;9.20;71.81
77120;BME280;66073;47.730;9.352;2023-04-19T05:28:40;96983.00;;;9.30;72.14
77120;BME280;66073;47.730;9.352;2023-04-19T05:31:10;96983.47;;;9.22;72.21
77120;BME280;66073;47.730;9.352;2023-04-19T05:33:36;96980.00;;;9.16;72.37
77120;BME280;66073;47.730;9.352;2023-04-19T05:36:01;96986.72;;;9.29;71.87
77120;BME280;66073;47.730;9.352;2023-04-19T05:38:27;96980.91;;;9.37;71.87
77120;BME280;66073;47.730;9.352;2023-04-19T05:40:52;96987.56;;;9.34;71.99
77120;BME280;66073;47.730;9.352;2023-04-19T05:43:18;96987.88;;;9.48;71.55
77120;BME280;66073;47.730;9.352;2023-04-19T05:45:43;96984.66;;;9.46;71.58
77120;BME280;66073;47.730;9.352;2023-04-19T05:48:08;96990.22;;;9.34;71.90
77120;BME280;66073;47.730;9.352;2023-04-19T05:50:34;96983.28;;;9.38;71.86
77120;BME280;66073;47.730;9.352;2023-04-19T05:53:02;96986.31;;;9.57;71.42
77120;BME280;66073;47.730;9.352;2023-04-19T05:55:28;96984.72;;;9.56;71.23
77120;BME280;66073;47.730;9.352;2023-04-19T05:57:53;96980.00;;;9.73;71.03
77120;BME280;66073;47.730;9.352;2023-04-19T06:00:19;96984.25;;;9.74;70.43
77120;BME280;66073;47.730;9.352;2023-04-19T06:02:45;96982.03;;;9.51;70.62
77120;BME280;66073;47.730;9.352;2023-04-19T06:05:10;96983.72;;;9.72;70.65
77120;BME280;66073;47.730;9.352;2023-04-19T06:07:36;96983.13;;;9.60;70.99
77120;BME280;66073;47.730;9.352;2023-04-19T06:10:01;96980.00;;;9.73;70.60
77120;BME280;66073;47.730;9.352;2023-04-19T06:12:27;96979.47;;;9.81;70.98
77120;BME280;66073;47.730;9.352;2023-04-19T06:14:53;96986.44;;;9.82;70.26
77120;BME280;66073;47.730;9.352;2023-04-19T06:17:18;96982.59;;;9.63;70.58
77120;BME280;66073;47.730;9.352;2023-04-19T06:19:50;96983.69;;;9.62;70.74
77120;BME280;66073;47.730;9.352;2023-04-19T06:22:15;96978.97;;;9.79;70.07
77120;BME280;66073;47.730;9.352;2023-04-19T06:24:43;96989.75;;;9.53;71.36
77120;BME280;66073;47.730;9.352;2023-04-19T06:27:09;96985.31;;;9.68;70.89
77120;BME280;66073;47.730;9.352;2023-04-19T06:29:34;96990.66;;;9.73;71.07
77120;BME280;66073;47.730;9.352;2023-04-19T06:32:00;96991.97;;;9.66;70.82
77120;BME280;66073;47.730;9.352;2023-04-19T06:34:25;96982.66;;;9.78;70.73
77120;BME280;66073;47.730;9.352;2023-04-19T06:36:51;96986.97;;;9.84;70.04
77120;BME280;66073;47.730;9.352;2023-04-19T06:39:16;96985.06;;;9.70;70.63
77120;BME280;66073;47.730;9.352;2023-04-19T06:41:42;96995.47;;;9.76;70.77
77120;BME280;66073;47.730;9.352;2023-04-19T06:44:07;96993.34;;;9.78;70.83
77120;BME280;66073;47.730;9.352;2023-04-19T06:46:33;96993.38;;;9.88;70.80
77120;BME280;66073;47.730;9.352;2023-04-19T06:48:58;96991.84;;;10.08;69.36
77120;BME280;66073;47.730;9.352;2023-04-19T06:51:24;96995.75;;;9.80;70.81
77120;BME280;66073;47.730;9.352;2023-04-19T06:53:50;96996.00;;;9.73;70.71
77120;BME280;66073;47.730;9.352;2023-04-19T06:56:15;96997.69;;;10.05;70.47
77120;BME280;66073;47.730;9.352;2023-04-19T06:58:41;97004.09;;;9.99;70.11
77120;BME280;66073;47.730;9.352;2023-04-19T07:01:06;96989.50;;;10.16;70.02
77120;BME280;66073;47.730;9.352;2023-04-19T07:03:32;96999.75;;;9.77;70.74
77120;BME280;66073;47.730;9.352;2023-04-19T07:05:57;96995.03;;;10.05;70.34
77120;BME280;66073;47.730;9.352;2023-04-19T07:08:24;96996.09;;;9.99;70.45
77120;BME280;66073;47.730;9.352;2023-04-19T07:10:49;96993.69;;;10.02;70.45
77120;BME280;66073;47.730;9.352;2023-04-19T07:13:15;96995.25;;;9.93;70.88
77120;BME280;66073;47.730;9.352;2023-04-19T07:15:41;96999.25;;;9.95;70.81
77120;BME280;66073;47.730;9.352;2023-04-19T07:18:07;97001.13;;;9.90;70.85
77120;BME280;66073;47.730;9.352;2023-04-19T07:20:34;96995.31;;;10.13;70.53
77120;BME280;66073;47.730;9.352;2023-04-19T07:23:00;96994.41;;;9.82;71.42
77120;BME280;66073;47.730;9.352;2023-04-19T07:25:26;96985.97;;;10.06;70.75
77120;BME280;66073;47.730;9.352;2023-04-19T07:27:52;96990.47;;;9.95;71.02
77120;BME280;66073;47.730;9.352;2023-04-19T07:30:19;96993.44;;;9.99;71.20
77120;BME280;66073;47.730;9.352;2023-04-19T07:32:44;96993.44;;;10.09;70.54
77120;BME280;66073;47.730;9.352;2023-04-19T07:35:10;96991.81;;;9.98;70.87
77120;BME280;66073;47.730;9.352;2023-04-19T07:37:36;96995.38;;;10.23;69.99
77120;BME280;66073;47.730;9.352;2023-04-19T07:40:01;96989.78;;;10.30;70.03
77120;BME280;66073;47.730;9.352;2023-04-19T07:42:28;96993.09;;;9.85;71.38
77120;BME280;66073;47.730;9.352;2023-04-19T07:44:54;96995.00;;;9.94;71.78
77120;BME280;66073;47.730;9.352;2023-04-19T07:47:19;96990.81;;;10.24;70.99
77120;BME280;66073;47.730;9.352;2023-04-19T07:49:45;96992.38;;;10.05;70.85
77120;BME280;66073;47.730;9.352;2023-04-19T07:52:10;96997.00;;;10.34;70.23
77120;BME280;66073;47.730;9.352;2023-04-19T07:54:36;96985.81;;;10.68;69.15
77120;BME280;66073;47.730;9.352;2023-04-19T07:57:03;96991.16;;;10.98;67.97
77120;BME280;66073;47.730;9.352;2023-04-19T07:59:29;96987.69;;;10.82;68.21
77120;BME280;66073;47.730;9.352;2023-04-19T08:01:57;96988.75;;;10.76;68.37
77120;BME280;66073;47.730;9.352;2023-04-19T08:04:23;96995.69;;;10.92;68.21
77120;BME280;66073;47.730;9.352;2023-04-19T08:06:48;96987.63;;;11.18;67.82
77120;BME280;66073;47.730;9.352;2023-04-19T08:09:14;96986.06;;;11.02;67.72
77120;BME280;66073;47.730;9.352;2023-04-19T08:11:39;96991.91;;;11.19;66.73
77120;BME280;66073;47.730;9.352;2023-04-19T08:14:05;96991.16;;;10.58;68.14
77120;BME280;66073;47.730;9.352;2023-04-19T08:16:32;96982.06;;;10.69;69.48
77120;BME280;66073;47.730;9.352;2023-04-19T08:18:57;96981.53;;;10.67;68.35
77120;BME280;66073;47.730;9.352;2023-04-19T08:21:23;96987.63;;;10.22;69.33
77120;BME280;66073;47.730;9.352;2023-04-19T08:23:48;96997.28;;;10.53;68.81
77120;BME280;66073;47.730;9.352;2023-04-19T08:26:14;96986.84;;;10.31;68.93
77120;BME280;66073;47.730;9.352;2023-04-19T08:28:39;96987.03;;;10.05;70.06
77120;BME280;66073;47.730;9.352;2023-04-19T08:31:05;96985.50;;;10.24;69.92
77120;BME280;66073;47.730;9.352;2023-04-19T08:33:34;96982.81;;;10.19;70.19
77120;BME280;66073;47.730;9.352;2023-04-19T08:36:00;96988.22;;;10.79;69.45
77120;BME280;66073;47.730;9.352;2023-04-19T08:38:25;96986.88;;;10.52;68.78
77120;BME280;66073;47.730;9.352;2023-04-19T08:40:52;96987.16;;;10.45;69.67
77120;BME280;66073;47.730;9.352;2023-04-19T08:43:20;96985.28;;;10.61;69.03
77120;BME280;66073;47.730;9.352;2023-04-19T08:45:50;96987.94;;;10.76;68.50
77120;BME280;66073;47.730;9.352;2023-04-19T08:48:16;96982.84;;;11.00;67.83
77120;BME280;66073;47.730;9.352;2023-04-19T08:50:43;96990.34;;;10.98;66.41
77120;BME280;66073;47.730;9.352;2023-04-19T08:53:13;96983.41;;;10.66;67.62
77120;BME280;66073;47.730;9.352;2023-04-19T08:55:41;96980.19;;;10.74;67.39
77120;BME280;66073;47.730;9.352;2023-04-19T08:58:07;96979.66;;;11.08;66.38
77120;BME280;66073;47.730;9.352;2023-04-19T09:00:37;96976.19;;;10.82;67.33
77120;BME280;66073;47.730;9.352;2023-04-19T09:03:06;96982.31;;;10.92;67.63
77120;BME280;66073;47.730;9.352;2023-04-19T09:05:33;96967.88;;;11.19;66.17
77120;BME280;66073;47.730;9.352;2023-04-19T09:13:19;96979.56;;;11.48;64.74
77120;BME280;66073;47.730;9.352;2023-04-19T09:15:44;96963.47;;;11.58;64.80
77120;BME280;66073;47.730;9.352;2023-04-19T09:18:11;96968.22;;;11.81;63.95
77120;BME280;66073;47.730;9.352;2023-04-19T09:20:39;96970.06;;;11.86;64.32
77120;BME280;66073;47.730;9.352;2023-04-19T09:23:07;96958.19;;;11.48;65.20
77120;BME280;66073;47.730;9.352;2023-04-19T09:25:32;96959.72;;;11.64;64.94
77120;BME280;66073;47.730;9.352;2023-04-19T09:28:12;96963.59;;;11.97;63.76
77120;BME280;66073;47.730;9.352;2023-04-19T09:30:40;96954.69;;;11.42;64.44
77120;BME280;66073;47.730;9.352;2023-04-19T09:33:06;96959.25;;;11.42;64.74
77120;BME280;66073;47.730;9.352;2023-04-19T09:35:42;96955.59;;;11.08;65.65
77120;BME280;66073;47.730;9.352;2023-04-19T09:38:08;96947.41;;;11.68;64.33
77120;BME280;66073;47.730;9.352;2023-04-19T09:40:34;96953.88;;;12.16;62.95
77120;BME280;66073;47.730;9.352;2023-04-19T09:43:01;96953.00;;;12.60;61.41
77120;BME280;66073;47.730;9.352;2023-04-19T09:45:38;96943.69;;;12.52;61.37
77120;BME280;66073;47.730;9.352;2023-04-19T09:48:06;96948.63;;;11.96;63.54
77120;BME280;66073;47.730;9.352;2023-04-19T09:50:32;96947.25;;;12.42;63.24
77120;BME280;66073;47.730;9.352;2023-04-19T09:52:58;96934.41;;;12.45;61.71
77120;BME280;66073;47.730;9.352;2023-04-19T09:55:24;96946.25;;;11.89;64.39
77120;BME280;66073;47.730;9.352;2023-04-19T09:57:51;96934.44;;;12.01;64.18
77120;BME280;66073;47.730;9.352;2023-04-19T10:00:17;96936.03;;;12.02;63.43
77120;BME280;66073;47.730;9.352;2023-04-19T10:02:43;96933.78;;;12.14;63.38
77120;BME280;66073;47.730;9.352;2023-04-19T10:05:14;96921.53;;;12.08;63.15
77120;BME280;66073;47.730;9.352;2023-04-19T10:07:41;96926.47;;;12.63;63.24
77120;BME280;66073;47.730;9.352;2023-04-19T10:10:07;96922.31;;;13.10;60.54
77120;BME280;66073;47.730;9.352;2023-04-19T10:12:34;96930.41;;;13.52;59.62
77120;BME280;66073;47.730;9.352;2023-04-19T10:15:01;96928.75;;;13.09;59.84
77120;BME280;66073;47.730;9.352;2023-04-19T10:17:26;96927.50;;;13.49;60.53
77120;BME280;66073;47.730;9.352;2023-04-19T10:20:04;96923.16;;;13.53;59.06
77120;BME280;66073;47.730;9.352;2023-04-19T10:22:35;96920.91;;;13.41;58.75
77120;BME280;66073;47.730;9.352;2023-04-19T10:25:13;96913.22;;;13.06;60.33
77120;BME280;66073;47.730;9.352;2023-04-19T10:27:43;96925.16;;;12.89;61.57
77120;BME280;66073;47.730;9.352;2023-04-19T10:30:23;96922.16;;;13.25;58.74
77120;BME280;66073;47.730;9.352;2023-04-19T10:32:54;96916.38;;;13.13;58.75
77120;BME280;66073;47.730;9.352;2023-04-19T10:35:27;96914.22;;;13.38;59.92
77120;BME280;66073;47.730;9.352;2023-04-19T10:43:16;96909.69;;;12.81;59.21
77120;BME280;66073;47.730;9.352;2023-04-19T10:45:42;96904.91;;;12.78;58.96
77120;BME280;66073;47.730;9.352;2023-04-19T10:56:12;96894.13;;;11.82;62.24
77120;BME280;66073;47.730;9.352;2023-04-19T10:59:13;96888.16;;;11.95;62.17
77120;BME280;66073;47.730;9.352;2023-04-19T11:01:49;96880.44;;;12.27;61.92
77120;BME280;66073;47.730;9.352;2023-04-19T11:04:23;96891.00;;;12.48;61.17
77120;BME280;66073;47.730;9.352;2023-04-19T11:07:08;96888.47;;;11.88;62.13
77120;BME280;66073;47.730;9.352;2023-04-19T11:09:36;96880.81;;;11.13;63.87
77120;BME280;66073;47.730;9.352;2023-04-19T11:12:04;96876.56;;;12.10;62.58
77120;BME280;66073;47.730;9.352;2023-04-19T11:15:04;96871.91;;;12.25;62.40
77120;BME280;66073;47.730;9.352;2023-04-19T11:17:31;96877.31;;;12.49;62.35
77120;BME280;66073;47.730;9.352;2023-04-19T11:19:58;96869.56;;;12.14;62.78
77120;BME280;66073;47.730;9.352;2023-04-19T11:22:37;96866.31;;;11.83;64.51
77120;BME280;66073;47.730;9.352;2023-04-19T11:25:21;96863.53;;;12.37;62.58
77120;BME280;66073;47.730;9.352;2023-04-19T11:27:51;96860.00;;;12.08;63.37
77120;BME280;66073;47.730;9.352;2023-04-19T11:30:20;96865.97;;;12.62;62.76
77120;BME280;66073;47.730;9.352;2023-04-19T11:32:51;96862.72;;;12.65;60.92
77120;BME280;66073;47.730;9.352;2023-04-19T11:35:21;96862.81;;;13.08;59.76
77120;BME280;66073;47.730;9.352;2023-04-19T11:37:48;96853.34;;;12.63;59.94
77120;BME280;66073;47.730;9.352;2023-04-19T11:40:15;96853.09;;;12.64;61.33
77120;BME280;66073;47.730;9.352;2023-04-19T11:42:42;96851.66;;;12.48;62.12
77120;BME280;66073;47.730;9.352;2023-04-19T11:45:09;96852.47;;;12.72;61.30
77120;BME280;66073;47.730;9.352;2023-04-19T11:47:34;96844.91;;;12.79;59.97
77120;BME280;66073;47.730;9.352;2023-04-19T11:51:01;96847.53;;;12.84;59.97
77120;BME280;66073;47.730;9.352;2023-04-19T11:53:17;96838.81;;;12.98;58.70
77120;BME280;66073;47.730;9.352;2023-04-19T11:58:22;96839.03;;;12.20;62.33
77120;BME280;66073;47.730;9.352;2023-04-19T12:00:47;96831.41;;;11.59;63.90
77120;BME280;66073;47.730;9.352;2023-04-19T12:03:13;96828.66;;;12.42;61.22
77120;BME280;66073;47.730;9.352;2023-04-19T12:08:29;96824.19;;;13.14;59.59
77120;BME280;66073;47.730;9.352;2023-04-19T12:10:57;96823.88;;;13.95;55.55
77120;BME280;66073;47.730;9.352;2023-04-19T12:13:24;96824.31;;;13.46;58.05
77120;BME280;66073;47.730;9.352;2023-04-19T12:15:50;96822.16;;;13.01;59.46
77120;BME280;66073;47.730;9.352;2023-04-19T12:18:15;96818.06;;;13.32;58.06
77120;BME280;66073;47.730;9.352;2023-04-19T12:20:46;96818.94;;;13.46;56.39
77120;BME280;66073;47.730;9.352;2023-04-19T12:23:13;96815.50;;;13.22;57.91
77120;BME280;66073;47.730;9.352;2023-04-19T12:25:40;96817.78;;;13.33;57.94
77120;BME280;66073;47.730;9.352;2023-04-19T12:28:06;96814.47;;;12.70;58.64
77120;BME280;66073;47.730;9.352;2023-04-19T12:30:31;96817.22;;;13.13;58.49
77120;BME280;66073;47.730;9.352;2023-04-19T12:32:58;96815.31;;;13.74;57.32
77120;BME280;66073;47.730;9.352;2023-04-19T12:35:25;96814.59;;;13.08;59.04
77120;BME280;66073;47.730;9.352;2023-04-19T12:37:56;96809.97;;;13.37;58.17
77120;BME280;66073;47.730;9.352;2023-04-19T12:40:24;96808.75;;;13.48;58.07
77120;BME280;66073;47.730;9.352;2023-04-19T12:42:50;96809.34;;;12.98;58.58
77120;BME280;66073;47.730;9.352;2023-04-19T12:45:16;96806.84;;;13.30;57.08
77120;BME280;66073;47.730;9.352;2023-04-19T12:47:43;96805.13;;;13.58;56.93
77120;BME280;66073;47.730;9.352;2023-04-19T12:50:09;96799.59;;;13.86;55.16
77120;BME280;66073;47.730;9.352;2023-04-19T12:52:34;96793.84;;;13.93;55.07
77120;BME280;66073;47.730;9.352;2023-04-19T12:55:00;96789.38;;;14.21;54.20
77120;BME280;66073;47.730;9.352;2023-04-19T12:57:26;96792.81;;;14.08;54.55
77120;BME280;66073;47.730;9.352;2023-04-19T12:59:52;96791.16;;;14.12;55.52
77120;BME280;66073;47.730;9.352;2023-04-19T13:02:17;96790.03;;;13.80;56.15
77120;BME280;66073;47.730;9.352;2023-04-19T13:04:43;96789.94;;;13.29;57.56
77120;BME280;66073;47.730;9.352;2023-04-19T13:07:08;96779.63;;;13.18;58.41
77120;BME280;66073;47.730;9.352;2023-04-19T13:09:34;96777.44;;;13.62;55.78
77120;BME280;66073;47.730;9.352;2023-04-19T13:11:59;96772.38;;;13.93;54.94
77120;BME280;66073;47.730;9.352;2023-04-19T13:14:26;96765.44;;;13.73;56.43
77120;BME280;66073;47.730;9.352;2023-04-19T13:16:52;96763.91;;;13.86;54.07
77120;BME280;66073;47.730;9.352;2023-04-19T13:19:18;96766.28;;;13.55;55.33
77120;BME280;66073;47.730;9.352;2023-04-19T13:21:45;96759.19;;;13.97;54.62
77120;BME280;66073;47.730;9.352;2023-04-19T13:24:10;96757.28;;;13.46;56.28
77120;BME280;66073;47.730;9.352;2023-04-19T13:26:36;96751.22;;;12.98;56.90
77120;BME280;66073;47.730;9.352;2023-04-19T13:29:03;96758.59;;;13.30;56.03